createdAt,value
2023-05-11T00:01:47.717Z,96.95
2023-05-11T00:04:14.491Z,94.86
2023-05-11T00:06:41.316Z,95.64
2023-05-11T00:09:09.641Z,96.00
2023-05-11T00:11:36.475Z,95.69
2023-05-11T00:14:03.561Z,94.23
2023-05-11T00:16:30.338Z,94.17
2023-05-11T00:18:57.152Z,95.42
2023-05-11T00:21:24.039Z,95.89
2023-05-11T00:23:51.273Z,96.85
2023-05-11T00:26:18.102Z,96.70
2023-05-11T00:28:45.681Z,99.14
2023-05-11T00:31:12.530Z,100.00
2023-05-11T00:33:39.263Z,99.56
2023-05-11T00:36:06.434Z,100.00
2023-05-11T00:38:33.229Z,100.00
2023-05-11T00:40:59.981Z,100.00
2023-05-11T00:43:26.748Z,100.00
2023-05-11T00:45:53.855Z,100.00
2023-05-11T00:48:20.730Z,100.00
2023-05-11T00:50:48.025Z,100.00
2023-05-11T00:53:14.930Z,100.00
2023-05-11T00:55:42.276Z,100.00
2023-05-11T00:58:09.208Z,100.00
2023-05-11T01:00:37.036Z,100.00
2023-05-11T01:03:04.346Z,100.00
2023-05-11T01:05:48.600Z,100.00
2023-05-11T01:08:21.583Z,100.00
2023-05-11T01:10:57.342Z,100.00
2023-05-11T01:13:33.833Z,100.00
2023-05-11T01:16:06.993Z,100.00
2023-05-11T01:18:44.036Z,100.00
2023-05-11T01:21:12.185Z,100.00
2023-05-11T01:23:57.134Z,100.00
2023-05-11T01:26:33.599Z,100.00
2023-05-11T01:29:39.307Z,100.00
2023-05-11T01:32:16.185Z,100.00
2023-05-11T01:34:44.898Z,100.00
2023-05-11T01:37:16.644Z,100.00
2023-05-11T01:39:52.152Z,100.00
2023-05-11T01:42:24.485Z,100.00
2023-05-11T01:44:54.534Z,100.00
2023-05-11T01:47:26.709Z,100.00
2023-05-11T01:49:55.053Z,100.00
2023-05-11T01:52:24.571Z,100.00
2023-05-11T01:54:53.183Z,100.00
2023-05-11T01:57:21.963Z,100.00
2023-05-11T01:59:50.750Z,100.00
2023-05-11T02:02:19.247Z,100.00
2023-05-11T02:04:47.086Z,100.00
2023-05-11T02:07:14.653Z,100.00
2023-05-11T02:09:42.290Z,100.00
2023-05-11T02:12:10.545Z,100.00
2023-05-11T02:14:38.260Z,100.00
2023-05-11T02:17:06.718Z,100.00
2023-05-11T02:19:38.016Z,100.00
2023-05-11T02:22:07.129Z,100.00
2023-05-11T02:24:35.565Z,100.00
2023-05-11T02:27:02.771Z,100.00
2023-05-11T02:29:29.550Z,100.00
2023-05-11T02:32:01.413Z,100.00
2023-05-11T02:34:31.795Z,100.00
2023-05-11T02:37:02.830Z,100.00
2023-05-11T02:39:35.498Z,100.00
2023-05-11T02:42:12.893Z,100.00
2023-05-11T02:44:50.708Z,100.00
2023-05-11T02:47:19.876Z,100.00
2023-05-11T02:49:53.832Z,100.00
2023-05-11T02:52:22.721Z,100.00
2023-05-11T02:54:51.811Z,100.00
2023-05-11T02:57:19.480Z,100.00
2023-05-11T02:59:46.755Z,100.00
2023-05-11T03:02:13.709Z,100.00
2023-05-11T03:04:40.531Z,100.00
2023-05-11T03:07:08.306Z,100.00
2023-05-11T03:09:35.574Z,100.00
2023-05-11T03:12:04.236Z,100.00
2023-05-11T03:14:34.962Z,100.00
2023-05-11T03:17:03.064Z,100.00
2023-05-11T03:19:31.276Z,100.00
2023-05-11T03:22:00.040Z,100.00
2023-05-11T03:24:27.167Z,100.00
2023-05-11T03:26:57.793Z,100.00
2023-05-11T03:29:27.450Z,100.00
2023-05-11T03:31:55.371Z,100.00
2023-05-11T03:34:22.337Z,100.00
2023-05-11T03:36:50.992Z,100.00
2023-05-11T03:39:18.415Z,100.00
2023-05-11T03:41:49.685Z,100.00
2023-05-11T03:44:21.061Z,100.00
2023-05-11T03:46:50.709Z,100.00
2023-05-11T03:49:18.717Z,100.00
2023-05-11T03:51:46.477Z,100.00
2023-05-11T03:54:13.726Z,100.00
2023-05-11T03:56:41.105Z,100.00
2023-05-11T03:59:08.750Z,100.00
2023-05-11T04:01:35.767Z,100.00
2023-05-11T04:04:02.608Z,100.00
2023-05-11T04:06:29.448Z,100.00
2023-05-11T04:08:56.324Z,100.00
2023-05-11T04:11:23.240Z,100.00
2023-05-11T04:13:50.501Z,100.00
2023-05-11T04:16:17.236Z,100.00
2023-05-11T04:18:44.110Z,98.62
2023-05-11T04:21:10.930Z,98.83
2023-05-11T04:23:38.458Z,98.29
2023-05-11T04:26:05.233Z,98.36
2023-05-11T04:28:32.047Z,97.20
2023-05-11T04:30:58.989Z,96.57
2023-05-11T04:33:25.766Z,97.02
2023-05-11T04:35:54.024Z,96.67
2023-05-11T04:38:21.845Z,97.32
2023-05-11T04:40:50.807Z,97.06
2023-05-11T04:43:18.765Z,97.51
2023-05-11T04:45:51.893Z,97.99
2023-05-11T04:48:20.684Z,97.15
2023-05-11T04:50:48.025Z,98.07
2023-05-11T04:53:14.982Z,97.69
2023-05-11T04:55:41.757Z,96.78
2023-05-11T04:58:08.660Z,97.01
2023-05-11T05:00:36.811Z,96.21
2023-05-11T05:03:03.949Z,95.74
2023-05-11T05:05:30.966Z,96.33
2023-05-11T05:07:59.590Z,93.84
2023-05-11T05:10:26.648Z,94.61
2023-05-11T05:12:53.395Z,94.69
2023-05-11T05:15:20.310Z,93.72
2023-05-11T05:17:47.122Z,94.19
2023-05-11T05:20:13.991Z,93.31
2023-05-11T05:22:41.958Z,94.16
2023-05-11T05:25:09.268Z,93.90
2023-05-11T05:27:36.012Z,93.12
2023-05-11T05:30:02.757Z,92.64
2023-05-11T05:32:29.516Z,91.32
2023-05-11T05:34:56.456Z,91.72
2023-05-11T05:37:23.295Z,92.80
2023-05-11T05:39:50.025Z,91.78
2023-05-11T05:42:16.791Z,91.88
2023-05-11T05:44:43.584Z,90.44
2023-05-11T05:47:10.333Z,91.30
2023-05-11T05:49:37.123Z,90.27
2023-05-11T05:52:04.248Z,88.45
2023-05-11T05:54:31.548Z,89.01
2023-05-11T05:56:58.301Z,89.27
2023-05-11T05:59:25.047Z,88.23
2023-05-11T06:01:51.913Z,90.24
2023-05-11T06:04:18.841Z,89.93
2023-05-11T06:06:46.704Z,90.58
2023-05-11T06:09:13.953Z,89.43
2023-05-11T06:11:41.385Z,90.04
2023-05-11T06:14:08.119Z,90.04
2023-05-11T06:16:35.187Z,90.14
2023-05-11T06:19:02.110Z,87.61
2023-05-11T06:21:28.872Z,87.78
2023-05-11T06:23:55.621Z,88.01
2023-05-11T06:26:25.398Z,86.90
2023-05-11T06:28:52.907Z,85.76
2023-05-11T06:31:19.965Z,86.07
2023-05-11T06:33:46.788Z,85.58
2023-05-11T06:36:13.542Z,85.55
2023-05-11T06:38:40.369Z,85.04
2023-05-11T06:41:07.815Z,83.92
2023-05-11T06:43:34.583Z,82.83
2023-05-11T06:46:01.519Z,84.59
2023-05-11T06:48:30.119Z,83.17
2023-05-11T06:50:57.515Z,84.54
2023-05-11T06:53:24.305Z,81.97
2023-05-11T06:55:51.083Z,82.01
2023-05-11T06:58:20.747Z,82.90
2023-05-11T07:00:47.700Z,83.23
2023-05-11T07:03:14.485Z,81.62
2023-05-11T07:05:41.377Z,83.63
2023-05-11T07:08:08.229Z,82.82
2023-05-11T07:10:35.077Z,82.94
2023-05-11T07:13:01.843Z,83.19
2023-05-11T07:15:28.613Z,82.79
2023-05-11T07:17:55.431Z,82.03
2023-05-11T07:20:22.332Z,82.81
2023-05-11T07:22:49.154Z,81.45
2023-05-11T07:25:15.926Z,82.23
2023-05-11T07:27:43.025Z,81.34
2023-05-11T07:30:10.135Z,80.84
2023-05-11T07:32:36.981Z,81.11
2023-05-11T07:35:03.926Z,81.87
2023-05-11T07:37:30.713Z,81.44
2023-05-11T07:39:57.439Z,80.82
2023-05-11T07:42:24.168Z,81.03
2023-05-11T07:44:50.985Z,81.62
2023-05-11T07:47:19.247Z,81.78
2023-05-11T07:49:47.617Z,81.72
2023-05-11T07:52:14.840Z,83.47
2023-05-11T07:54:41.830Z,84.77
2023-05-11T07:57:08.730Z,84.56
2023-05-11T07:59:35.713Z,86.03
2023-05-11T08:02:02.600Z,84.54
2023-05-11T08:04:30.584Z,83.75
2023-05-11T08:06:58.553Z,84.89
2023-05-11T08:09:25.729Z,86.63
2023-05-11T08:11:53.572Z,86.74
2023-05-11T08:14:21.441Z,86.88
2023-05-11T08:16:49.855Z,85.92
2023-05-11T08:19:16.805Z,87.10
2023-05-11T08:21:44.544Z,87.57
2023-05-11T08:24:11.291Z,88.28
2023-05-11T08:26:38.383Z,88.35
2023-05-11T08:29:05.200Z,89.05
2023-05-11T08:31:31.947Z,88.53
2023-05-11T08:33:59.014Z,88.06
2023-05-11T08:36:25.962Z,88.45
2023-05-11T08:38:57.003Z,88.43
2023-05-11T08:41:25.663Z,86.95
2023-05-11T08:43:53.103Z,87.70
2023-05-11T08:46:24.042Z,86.71
2023-05-11T08:48:50.957Z,85.98
2023-05-11T08:51:17.868Z,84.59
2023-05-11T08:53:45.147Z,85.78
2023-05-11T08:56:12.451Z,86.54
2023-05-11T08:58:40.170Z,86.11
2023-05-11T09:01:07.674Z,85.92
2023-05-11T09:03:36.802Z,84.72
2023-05-11T09:06:07.531Z,86.56
2023-05-11T09:08:38.815Z,86.06
2023-05-11T09:11:06.501Z,85.48
2023-05-11T09:13:33.618Z,85.83
2023-05-11T09:16:00.492Z,85.50
2023-05-11T09:18:27.328Z,84.81
2023-05-11T09:20:54.634Z,86.07
2023-05-11T09:23:32.501Z,85.39
2023-05-11T09:25:59.282Z,84.84
2023-05-11T09:28:27.367Z,84.86
2023-05-11T09:30:54.723Z,85.79
2023-05-11T09:33:24.287Z,83.55
2023-05-11T09:35:52.073Z,84.76
2023-05-11T09:38:23.397Z,83.78
2023-05-11T09:40:56.390Z,84.28
2023-05-11T09:43:27.837Z,82.47
2023-05-11T09:46:02.017Z,82.51
2023-05-11T09:48:32.132Z,82.51
2023-05-11T09:51:04.323Z,83.37
2023-05-11T09:53:43.592Z,83.79
2023-05-11T09:56:10.947Z,82.72
2023-05-11T09:58:57.692Z,81.76
2023-05-11T10:01:35.236Z,81.55
2023-05-11T10:04:21.282Z,84.15
2023-05-11T10:06:53.973Z,83.36
2023-05-11T10:09:25.269Z,82.22
2023-05-11T10:11:54.032Z,84.22
2023-05-11T10:14:22.482Z,83.71
2023-05-11T10:16:49.547Z,82.03
2023-05-11T10:19:16.892Z,83.17
2023-05-11T10:21:44.273Z,83.16
2023-05-11T10:24:11.719Z,85.36
2023-05-11T10:26:39.102Z,84.26
2023-05-11T10:29:06.604Z,83.85
2023-05-11T10:31:33.964Z,83.63
2023-05-11T10:34:02.035Z,84.76
2023-05-11T10:36:29.441Z,86.29
2023-05-11T10:38:56.506Z,86.11
2023-05-11T10:41:33.978Z,86.76
2023-05-11T10:44:15.845Z,85.23
2023-05-11T10:46:56.715Z,84.87
2023-05-11T10:49:38.277Z,88.55
2023-05-11T10:52:24.510Z,85.76
2023-05-11T10:54:57.522Z,86.18
2023-05-11T10:57:45.366Z,88.90
2023-05-11T11:00:31.262Z,88.11
2023-05-11T11:02:59.195Z,89.13
2023-05-11T11:05:36.808Z,88.57
2023-05-11T11:08:07.635Z,89.69
2023-05-11T11:10:51.837Z,89.62
2023-05-11T11:13:20.364Z,89.10
2023-05-11T11:16:10.436Z,90.40
2023-05-11T11:18:37.597Z,90.83
2023-05-11T11:21:04.797Z,91.54
2023-05-11T11:23:43.439Z,93.11
2023-05-11T11:26:17.390Z,92.18
2023-05-11T11:29:01.957Z,90.75
2023-05-11T11:31:30.655Z,90.37
2023-05-11T11:34:01.130Z,91.54
2023-05-11T11:37:02.124Z,89.36
2023-05-11T11:39:50.317Z,88.37
2023-05-11T11:42:34.769Z,90.28
2023-05-11T11:45:31.268Z,90.05
2023-05-11T11:48:08.620Z,89.73
2023-05-11T11:50:35.460Z,91.15
2023-05-11T11:53:02.244Z,90.97
2023-05-11T11:55:55.697Z,90.77
2023-05-11T11:58:40.641Z,94.68
2023-05-11T12:01:18.984Z,93.85
2023-05-11T12:03:50.853Z,91.63
2023-05-11T12:06:23.884Z,91.88
2023-05-11T12:08:53.244Z,91.66
2023-05-11T12:11:21.909Z,89.28
2023-05-11T12:13:49.325Z,88.85
2023-05-11T12:16:19.232Z,88.42
2023-05-11T12:19:00.016Z,88.56
2023-05-11T12:21:30.259Z,85.85
2023-05-11T12:23:59.329Z,82.83
2023-05-11T12:26:28.165Z,87.00
2023-05-11T12:29:09.269Z,85.00
2023-05-11T12:31:40.573Z,84.25
2023-05-11T12:34:07.516Z,88.31
2023-05-11T12:36:35.301Z,85.69
2023-05-11T12:39:02.066Z,86.48
2023-05-11T12:41:28.926Z,88.23
2023-05-11T12:43:56.512Z,86.80
2023-05-11T12:46:24.058Z,88.08
2023-05-11T12:48:51.844Z,87.94
2023-05-11T12:51:56.156Z,89.38
2023-05-11T12:54:30.232Z,91.76
2023-05-11T12:56:57.703Z,92.05
2023-05-11T12:59:37.941Z,90.47
2023-05-11T13:02:19.239Z,92.51
2023-05-11T13:04:47.064Z,93.08
2023-05-11T13:07:23.533Z,90.48
2023-05-11T13:09:58.344Z,92.35
2023-05-11T13:12:26.086Z,92.39
2023-05-11T13:15:08.012Z,95.54
2023-05-11T13:17:39.487Z,94.33
2023-05-11T13:20:19.891Z,99.83
2023-05-11T13:22:48.477Z,94.87
2023-05-11T13:25:17.294Z,96.63
2023-05-11T13:27:44.248Z,99.13
2023-05-11T13:30:11.884Z,98.84
2023-05-11T13:32:39.393Z,98.25
2023-05-11T13:35:07.193Z,100.00
2023-05-11T13:37:33.983Z,99.69
2023-05-11T13:40:01.012Z,97.63
2023-05-11T13:42:28.854Z,99.99
2023-05-11T13:44:55.677Z,100.00
2023-05-11T13:47:22.489Z,99.28
2023-05-11T13:49:49.435Z,100.00
2023-05-11T13:52:16.247Z,100.00
2023-05-11T13:54:43.021Z,100.00
2023-05-11T13:57:09.845Z,100.00
2023-05-11T13:59:36.639Z,100.00
2023-05-11T14:02:03.588Z,100.00
2023-05-11T14:04:30.588Z,100.00
2023-05-11T14:06:58.361Z,100.00
2023-05-11T14:09:25.402Z,100.00
2023-05-11T14:11:52.166Z,100.00
2023-05-11T14:14:18.931Z,100.00
2023-05-11T14:16:45.741Z,100.00
2023-05-11T14:19:12.741Z,100.00
2023-05-11T14:21:39.689Z,100.00
2023-05-11T14:24:12.236Z,100.00
2023-05-11T14:26:39.923Z,100.00
2023-05-11T14:29:07.412Z,100.00
2023-05-11T14:31:35.464Z,100.00
2023-05-11T14:34:03.835Z,100.00
2023-05-11T14:36:30.758Z,100.00
2023-05-11T14:38:57.793Z,100.00
2023-05-11T14:41:24.704Z,100.00
2023-05-11T14:43:51.481Z,100.00
2023-05-11T14:46:18.576Z,100.00
2023-05-11T14:48:45.527Z,100.00
2023-05-11T14:51:12.370Z,100.00
2023-05-11T14:53:39.734Z,100.00
2023-05-11T14:56:07.187Z,100.00
2023-05-11T14:58:34.042Z,100.00
2023-05-11T15:01:01.167Z,100.00
2023-05-11T15:03:28.333Z,100.00
2023-05-11T15:05:55.147Z,100.00
2023-05-11T15:08:29.645Z,100.00
2023-05-11T15:10:58.064Z,100.00
2023-05-11T15:13:25.023Z,100.00
2023-05-11T15:15:52.169Z,100.00
2023-05-11T15:18:19.186Z,100.00
2023-05-11T15:20:46.701Z,100.00
2023-05-11T15:23:17.185Z,100.00
2023-05-11T15:25:45.245Z,100.00
2023-05-11T15:28:12.559Z,100.00
2023-05-11T15:30:39.324Z,100.00
2023-05-11T15:33:06.182Z,100.00
2023-05-11T15:35:36.446Z,100.00
2023-05-11T15:38:04.135Z,100.00
2023-05-11T15:40:31.014Z,100.00
2023-05-11T15:42:58.902Z,100.00
2023-05-11T15:45:26.394Z,100.00
2023-05-11T15:47:54.365Z,100.00
2023-05-11T15:50:21.960Z,100.00
2023-05-11T15:52:49.042Z,100.00
2023-05-11T15:55:15.940Z,100.00
2023-05-11T15:57:43.960Z,100.00
2023-05-11T16:00:11.581Z,100.00
2023-05-11T16:02:38.799Z,100.00
2023-05-11T16:05:08.535Z,100.00
2023-05-11T16:07:35.291Z,100.00
2023-05-11T16:10:02.240Z,100.00
2023-05-11T16:12:29.107Z,100.00
2023-05-11T16:14:56.937Z,100.00
2023-05-11T16:17:24.932Z,100.00
2023-05-11T16:19:51.948Z,100.00
2023-05-11T16:22:18.771Z,100.00
2023-05-11T16:24:46.646Z,100.00
2023-05-11T16:27:13.629Z,100.00
2023-05-11T16:29:40.379Z,100.00
2023-05-11T16:32:07.215Z,100.00
2023-05-11T16:34:35.418Z,100.00
2023-05-11T16:37:02.283Z,100.00
2023-05-11T16:39:29.016Z,100.00
2023-05-11T16:41:56.593Z,100.00
2023-05-11T16:44:23.895Z,100.00
2023-05-11T16:46:51.085Z,100.00
2023-05-11T16:49:17.922Z,100.00
2023-05-11T16:51:44.680Z,100.00
2023-05-11T16:54:11.534Z,100.00
2023-05-11T16:56:38.482Z,100.00
2023-05-11T16:59:05.294Z,100.00
2023-05-11T17:01:32.668Z,100.00
2023-05-11T17:03:59.500Z,100.00
2023-05-11T17:06:27.675Z,100.00
2023-05-11T17:08:54.762Z,100.00
2023-05-11T17:11:21.980Z,100.00
2023-05-11T17:13:48.947Z,100.00
2023-05-11T17:16:16.171Z,100.00
2023-05-11T17:18:43.055Z,100.00
2023-05-11T17:21:10.775Z,100.00
2023-05-11T17:23:37.845Z,100.00
2023-05-11T17:26:08.729Z,100.00
2023-05-11T17:28:35.895Z,100.00
2023-05-11T17:31:13.916Z,100.00
2023-05-11T17:33:42.273Z,100.00
2023-05-11T17:36:10.100Z,100.00
2023-05-11T17:38:37.264Z,100.00
2023-05-11T17:41:07.997Z,100.00
2023-05-11T17:43:36.799Z,100.00
2023-05-11T17:46:04.566Z,100.00
2023-05-11T17:48:32.462Z,100.00
2023-05-11T17:51:00.478Z,100.00
2023-05-11T17:53:27.547Z,100.00
2023-05-11T17:55:54.425Z,100.00
2023-05-11T17:58:21.265Z,100.00
2023-05-11T18:00:49.134Z,100.00
2023-05-11T18:03:17.213Z,100.00
2023-05-11T18:08:14.439Z,100.00
2023-05-11T18:10:41.383Z,100.00
2023-05-11T18:13:09.067Z,100.00
2023-05-11T18:15:35.901Z,100.00
2023-05-11T18:18:02.779Z,100.00
2023-05-11T18:20:29.580Z,100.00
2023-05-11T18:22:57.131Z,100.00
2023-05-11T18:25:24.908Z,100.00
2023-05-11T18:27:51.666Z,100.00
2023-05-11T18:30:18.719Z,100.00
2023-05-11T18:32:45.695Z,100.00
2023-05-11T18:35:12.492Z,100.00
2023-05-11T18:37:39.366Z,100.00
2023-05-11T18:40:07.898Z,100.00
2023-05-11T18:42:34.761Z,100.00
2023-05-11T18:45:02.302Z,100.00
2023-05-11T18:47:29.136Z,100.00
2023-05-11T18:49:57.553Z,100.00
2023-05-11T18:52:24.581Z,100.00
2023-05-11T18:54:51.341Z,100.00
2023-05-11T18:57:20.420Z,100.00
2023-05-11T18:59:47.990Z,100.00
2023-05-11T19:02:15.554Z,100.00
2023-05-11T19:04:42.445Z,100.00
2023-05-11T19:07:09.297Z,100.00
2023-05-11T19:09:36.296Z,100.00
2023-05-11T19:12:03.972Z,100.00
2023-05-11T19:14:30.760Z,100.00
2023-05-11T19:16:57.640Z,100.00
2023-05-11T19:19:24.464Z,100.00
2023-05-11T19:21:51.336Z,100.00
2023-05-11T19:24:18.093Z,100.00
2023-05-11T19:26:52.250Z,100.00
2023-05-11T19:29:25.695Z,100.00
2023-05-11T19:31:52.998Z,100.00
2023-05-11T19:34:19.782Z,100.00
2023-05-11T19:36:46.658Z,100.00
2023-05-11T19:39:13.434Z,100.00
2023-05-11T19:41:40.491Z,100.00
2023-05-11T19:44:07.892Z,100.00
2023-05-11T19:46:34.769Z,100.00
2023-05-11T19:49:01.937Z,100.00
2023-05-11T19:51:28.778Z,100.00
2023-05-11T19:53:55.543Z,100.00
2023-05-11T19:56:22.802Z,100.00
2023-05-11T19:58:49.589Z,100.00
2023-05-11T20:01:16.513Z,100.00
2023-05-11T20:03:43.489Z,100.00
2023-05-11T20:06:12.643Z,100.00
2023-05-11T20:08:39.396Z,100.00
2023-05-11T20:11:07.054Z,100.00
2023-05-11T20:13:34.936Z,100.00
2023-05-11T20:16:01.806Z,100.00
2023-05-11T20:18:28.874Z,100.00
2023-05-11T20:20:56.474Z,100.00
2023-05-11T20:23:24.646Z,100.00
2023-05-11T20:25:51.372Z,100.00
2023-05-11T20:28:18.161Z,100.00
2023-05-11T20:30:44.981Z,100.00
2023-05-11T20:35:41.666Z,100.00
2023-05-11T20:38:08.492Z,100.00
2023-05-11T20:40:35.222Z,100.00
2023-05-11T20:43:03.931Z,100.00
2023-05-11T20:45:30.957Z,100.00
2023-05-11T20:47:58.137Z,100.00
2023-05-11T20:50:25.107Z,100.00
2023-05-11T20:52:52.132Z,100.00
2023-05-11T20:55:19.294Z,100.00
2023-05-11T20:57:46.455Z,100.00
2023-05-11T21:00:16.470Z,100.00
2023-05-11T21:02:45.212Z,100.00
2023-05-11T21:05:12.184Z,100.00
2023-05-11T21:07:38.962Z,100.00
2023-05-11T21:10:08.623Z,100.00
2023-05-11T21:12:35.512Z,100.00
2023-05-11T21:15:02.363Z,100.00
2023-05-11T21:17:30.070Z,100.00
2023-05-11T21:19:56.895Z,100.00
2023-05-11T21:22:23.849Z,100.00
2023-05-11T21:24:50.910Z,100.00
2023-05-11T21:27:18.160Z,100.00
2023-05-11T21:29:45.109Z,100.00
2023-05-11T21:32:12.076Z,100.00
2023-05-11T21:34:38.872Z,100.00
2023-05-11T21:37:05.697Z,100.00
2023-05-11T21:39:34.408Z,100.00
2023-05-11T21:42:01.894Z,100.00
2023-05-11T21:44:29.275Z,100.00
2023-05-11T21:46:56.141Z,100.00
2023-05-11T21:49:23.159Z,100.00
2023-05-11T21:51:50.566Z,100.00
2023-05-11T21:54:22.354Z,100.00
2023-05-11T21:56:50.097Z,100.00
2023-05-11T21:59:17.558Z,100.00
2023-05-11T22:01:45.469Z,100.00
2023-05-11T22:04:12.257Z,100.00
2023-05-11T22:06:39.283Z,100.00
2023-05-11T22:09:06.449Z,100.00
2023-05-11T22:11:34.650Z,100.00
2023-05-11T22:14:01.784Z,100.00
2023-05-11T22:16:28.739Z,100.00
2023-05-11T22:18:55.875Z,100.00
2023-05-11T22:21:22.821Z,100.00
2023-05-11T22:23:50.099Z,100.00
2023-05-11T22:26:17.060Z,100.00
2023-05-11T22:28:44.090Z,100.00
2023-05-11T22:31:10.943Z,100.00
2023-05-11T22:33:37.751Z,100.00
2023-05-11T22:36:04.716Z,100.00
2023-05-11T22:38:32.896Z,100.00
2023-05-11T22:40:59.674Z,100.00
2023-05-11T22:43:26.548Z,100.00
2023-05-11T22:45:53.297Z,100.00
2023-05-11T22:48:20.160Z,100.00
2023-05-11T22:50:47.890Z,100.00
2023-05-11T22:53:15.149Z,100.00
2023-05-11T22:55:42.396Z,100.00
2023-05-11T22:58:09.207Z,100.00
2023-05-11T23:00:36.309Z,100.00
2023-05-11T23:03:03.805Z,100.00
2023-05-11T23:05:30.754Z,100.00
2023-05-11T23:08:00.069Z,100.00
2023-05-11T23:10:28.890Z,100.00
2023-05-11T23:12:56.558Z,100.00
2023-05-11T23:15:23.360Z,100.00
2023-05-11T23:17:50.219Z,100.00
2023-05-11T23:20:17.416Z,100.00
2023-05-11T23:22:44.231Z,100.00
2023-05-11T23:25:11.262Z,100.00
2023-05-11T23:27:38.095Z,100.00
2023-05-11T23:30:05.357Z,100.00
2023-05-11T23:32:32.503Z,100.00
2023-05-11T23:34:59.567Z,100.00
2023-05-11T23:37:26.357Z,100.00
2023-05-11T23:39:53.171Z,100.00
2023-05-11T23:42:19.876Z,100.00
2023-05-11T23:44:46.843Z,100.00
2023-05-11T23:47:13.635Z,100.00
2023-05-11T23:49:40.442Z,100.00
2023-05-11T23:52:07.576Z,100.00
2023-05-11T23:54:34.336Z,100.00
2023-05-11T23:57:02.336Z,100.00
2023-05-11T23:59:29.107Z,100.00
